createdAt,value
2018-11-06T00:00:13.299Z,23.85
2018-11-06T00:00:48.762Z,25.52
2018-11-06T00:01:21.358Z,22.98
2018-11-06T00:01:53.962Z,24.05
2018-11-06T00:02:26.595Z,24.45
2018-11-06T00:03:04.698Z,24.30
2018-11-06T00:03:42.975Z,24.45
2018-11-06T00:04:15.601Z,23.92
2018-11-06T00:04:53.743Z,23.15
2018-11-06T00:05:26.348Z,27.15
2018-11-06T00:05:58.959Z,24.75
2018-11-06T00:06:31.762Z,27.62
2018-11-06T00:07:04.362Z,24.77
2018-11-06T00:07:36.968Z,25.25
2018-11-06T00:08:09.584Z,25.00
2018-11-06T00:08:42.218Z,26.00
2018-11-06T00:09:14.872Z,23.85
2018-11-06T00:09:47.681Z,25.27
2018-11-06T00:10:20.274Z,23.47
2018-11-06T00:10:52.886Z,25.80
2018-11-06T00:11:25.519Z,23.30
2018-11-06T00:11:58.110Z,25.57
2018-11-06T00:12:30.720Z,25.62
2018-11-06T00:13:04.387Z,25.27
2018-11-06T00:13:37.360Z,25.70
2018-11-06T00:14:09.961Z,25.40
2018-11-06T00:14:42.565Z,25.02
2018-11-06T00:15:15.174Z,23.30
2018-11-06T00:15:47.816Z,24.90
2018-11-06T00:16:20.440Z,25.40
2018-11-06T00:16:53.031Z,23.35
2018-11-06T00:17:25.614Z,24.82
2018-11-06T00:17:58.195Z,25.05
2018-11-06T00:18:30.802Z,27.00
2018-11-06T00:19:03.421Z,25.10
2018-11-06T00:19:36.003Z,24.27
2018-11-06T00:20:10.691Z,26.65
2018-11-06T00:20:43.320Z,26.90
2018-11-06T00:21:15.929Z,26.00
2018-11-06T00:21:48.524Z,24.55
2018-11-06T00:22:21.201Z,24.95
2018-11-06T00:22:53.825Z,26.02
2018-11-06T00:23:26.410Z,26.75
2018-11-06T00:23:59.003Z,24.80
2018-11-06T00:24:31.619Z,23.20
2018-11-06T00:25:05.038Z,25.85
2018-11-06T00:25:37.656Z,24.47
2018-11-06T00:26:10.259Z,25.00
2018-11-06T00:26:42.890Z,26.27
2018-11-06T00:27:15.491Z,25.20
2018-11-06T00:27:48.162Z,25.35
2018-11-06T00:28:20.751Z,24.70
2018-11-06T00:28:53.386Z,26.65
2018-11-06T00:29:26.004Z,25.92
2018-11-06T00:29:58.600Z,25.45
2018-11-06T00:30:31.198Z,24.35
2018-11-06T00:31:03.837Z,26.45
2018-11-06T00:31:36.473Z,25.17
2018-11-06T00:32:09.095Z,25.77
2018-11-06T00:32:42.120Z,25.02
2018-11-06T00:33:14.732Z,25.20
2018-11-06T00:33:47.342Z,26.00
2018-11-06T00:34:19.976Z,25.17
2018-11-06T00:34:52.563Z,25.95
2018-11-06T00:35:25.134Z,23.87
2018-11-06T00:35:57.752Z,26.30
2018-11-06T00:36:30.334Z,24.47
2018-11-06T00:37:02.923Z,24.80
2018-11-06T00:37:35.531Z,24.30
2018-11-06T00:38:08.144Z,24.92
2018-11-06T00:38:40.792Z,25.62
2018-11-06T00:39:13.382Z,26.57
2018-11-06T00:39:45.980Z,25.75
2018-11-06T00:40:18.613Z,24.67
2018-11-06T00:40:51.202Z,23.87
2018-11-06T00:41:23.865Z,25.55
2018-11-06T00:41:56.454Z,23.95
2018-11-06T00:42:29.051Z,25.15
2018-11-06T00:43:01.686Z,26.17
2018-11-06T00:43:34.264Z,25.72
2018-11-06T00:44:07.070Z,24.50
2018-11-06T00:44:39.696Z,25.10
2018-11-06T00:45:13.634Z,27.13
2018-11-06T00:45:46.223Z,24.32
2018-11-06T00:46:18.815Z,25.30
2018-11-06T00:46:51.406Z,24.05
2018-11-06T00:47:23.992Z,25.45
2018-11-06T00:47:56.607Z,26.75
2018-11-06T00:48:29.229Z,25.62
2018-11-06T00:49:01.812Z,25.43
2018-11-06T00:49:34.454Z,25.57
2018-11-06T00:50:08.151Z,24.32
2018-11-06T00:50:40.764Z,24.82
2018-11-06T00:51:13.394Z,23.80
2018-11-06T00:51:45.984Z,24.75
2018-11-06T00:52:18.563Z,23.67
2018-11-06T00:52:51.168Z,25.65
2018-11-06T00:53:23.767Z,24.72
2018-11-06T00:53:56.371Z,23.87
2018-11-06T00:54:29.043Z,23.22
2018-11-06T00:55:01.844Z,23.38
2018-11-06T00:55:34.524Z,24.30
2018-11-06T00:56:07.156Z,24.75
2018-11-06T00:56:39.714Z,23.70
2018-11-06T00:57:12.315Z,24.43
2018-11-06T00:57:44.920Z,24.90
2018-11-06T00:58:17.556Z,24.25
2018-11-06T00:58:50.132Z,24.95
2018-11-06T00:59:22.726Z,23.18
2018-11-06T00:59:55.387Z,23.85
2018-11-06T01:00:28.073Z,24.23
2018-11-06T01:01:00.695Z,25.40
2018-11-06T01:01:33.287Z,24.82
2018-11-06T01:02:06.260Z,23.85
2018-11-06T01:02:38.887Z,24.00
2018-11-06T01:03:11.499Z,25.00
2018-11-06T01:03:48.873Z,23.60
2018-11-06T01:04:21.475Z,25.00
2018-11-06T01:04:54.052Z,23.87
2018-11-06T01:05:26.631Z,24.55
2018-11-06T01:05:59.256Z,22.17
2018-11-06T01:06:31.844Z,25.62
2018-11-06T01:07:04.612Z,23.67
2018-11-06T01:07:37.196Z,24.35
2018-11-06T01:08:09.787Z,25.08
2018-11-06T01:08:42.412Z,23.98
2018-11-06T01:09:15.872Z,24.65
2018-11-06T01:09:48.594Z,24.12
2018-11-06T01:10:21.220Z,23.75
2018-11-06T01:10:53.824Z,24.43
2018-11-06T01:11:26.623Z,24.60
2018-11-06T01:11:59.319Z,24.47
2018-11-06T01:12:31.892Z,22.58
2018-11-06T01:13:04.671Z,23.45
2018-11-06T01:13:37.248Z,24.63
2018-11-06T01:14:09.863Z,23.07
2018-11-06T01:14:42.508Z,24.27
2018-11-06T01:15:15.909Z,24.20
2018-11-06T01:15:48.553Z,23.02
2018-11-06T01:16:21.591Z,25.00
2018-11-06T01:16:54.222Z,24.80
2018-11-06T01:17:26.832Z,22.65
2018-11-06T01:17:59.399Z,24.30
2018-11-06T01:18:31.967Z,22.95
2018-11-06T01:19:04.870Z,24.27
2018-11-06T01:19:37.485Z,21.50
2018-11-06T01:20:12.320Z,23.35
2018-11-06T01:20:44.918Z,23.02
2018-11-06T01:21:17.485Z,25.15
2018-11-06T01:21:50.121Z,24.02
2018-11-06T01:22:23.552Z,23.27
2018-11-06T01:22:56.177Z,23.00
2018-11-06T01:23:28.745Z,22.45
2018-11-06T01:24:01.361Z,22.87
2018-11-06T01:24:33.990Z,22.15
2018-11-06T01:25:07.381Z,24.10
2018-11-06T01:25:39.960Z,23.02
2018-11-06T01:26:12.539Z,23.38
2018-11-06T01:26:45.106Z,22.30
2018-11-06T01:27:17.721Z,22.37
2018-11-06T01:27:50.360Z,21.77
2018-11-06T01:28:22.947Z,22.45
2018-11-06T01:28:55.581Z,22.07
2018-11-06T01:29:28.196Z,22.40
2018-11-06T01:30:00.783Z,22.00
2018-11-06T01:30:33.372Z,21.50
2018-11-06T01:31:05.986Z,23.00
2018-11-06T01:31:38.567Z,22.30
2018-11-06T01:32:11.171Z,21.80
2018-11-06T01:32:44.547Z,21.70
2018-11-06T01:33:17.155Z,21.65
2018-11-06T01:33:49.719Z,22.65
2018-11-06T01:34:22.307Z,22.48
2018-11-06T01:34:54.906Z,21.70
2018-11-06T01:35:27.503Z,21.48
2018-11-06T01:36:00.137Z,21.20
2018-11-06T01:36:32.713Z,22.13
2018-11-06T01:37:05.354Z,20.48
2018-11-06T01:37:37.918Z,21.42
2018-11-06T01:38:10.529Z,23.07
2018-11-06T01:38:43.154Z,21.90
2018-11-06T01:39:15.719Z,22.17
2018-11-06T01:39:48.316Z,20.50
2018-11-06T01:40:20.896Z,21.40
2018-11-06T01:40:53.470Z,22.17
2018-11-06T01:41:26.039Z,21.12
2018-11-06T01:41:58.648Z,19.35
2018-11-06T01:42:31.211Z,20.20
2018-11-06T01:43:03.822Z,19.98
2018-11-06T01:43:36.410Z,21.05
2018-11-06T01:44:09.061Z,21.65
2018-11-06T01:44:41.654Z,21.17
2018-11-06T01:45:15.584Z,21.35
2018-11-06T01:45:48.315Z,19.55
2018-11-06T01:46:20.952Z,18.75
2018-11-06T01:46:53.553Z,21.25
2018-11-06T01:47:26.130Z,20.90
2018-11-06T01:47:58.715Z,20.52
2018-11-06T01:48:31.284Z,18.25
2018-11-06T01:49:03.906Z,19.87
2018-11-06T01:49:36.499Z,20.85
2018-11-06T01:50:11.659Z,19.07
2018-11-06T01:50:44.222Z,19.90
2018-11-06T01:51:16.791Z,19.62
2018-11-06T01:51:49.397Z,20.62
2018-11-06T01:52:21.967Z,20.17
2018-11-06T01:52:54.530Z,18.73
2018-11-06T01:53:27.138Z,19.55
2018-11-06T01:53:59.717Z,18.48
2018-11-06T01:54:32.280Z,18.17
2018-11-06T01:55:05.414Z,20.43
2018-11-06T01:55:37.986Z,19.57
2018-11-06T01:56:10.601Z,19.45
2018-11-06T01:56:43.158Z,20.45
2018-11-06T01:57:15.772Z,18.80
2018-11-06T01:57:48.369Z,19.55
2018-11-06T01:58:20.950Z,18.80
2018-11-06T01:58:53.588Z,19.55
2018-11-06T01:59:26.216Z,18.40
2018-11-06T01:59:58.838Z,19.57
2018-11-06T02:00:31.485Z,18.20
2018-11-06T02:01:04.211Z,19.50
2018-11-06T02:01:36.787Z,18.50
2018-11-06T02:02:09.398Z,18.48
2018-11-06T02:02:41.999Z,19.65
2018-11-06T02:03:14.584Z,19.57
2018-11-06T02:03:47.172Z,18.67
2018-11-06T02:04:19.763Z,19.00
2018-11-06T02:04:52.367Z,19.07
2018-11-06T02:05:24.932Z,18.20
2018-11-06T02:05:57.551Z,18.27
2018-11-06T02:06:30.114Z,18.02
2018-11-06T02:07:02.719Z,18.57
2018-11-06T02:07:35.396Z,19.32
2018-11-06T02:08:07.963Z,19.15
2018-11-06T02:08:40.589Z,18.67
2018-11-06T02:09:13.205Z,17.52
2018-11-06T02:09:45.766Z,18.15
2018-11-06T02:10:18.426Z,17.00
2018-11-06T02:10:50.990Z,17.65
2018-11-06T02:11:23.672Z,17.62
2018-11-06T02:11:56.252Z,19.52
2018-11-06T02:12:28.895Z,17.70
2018-11-06T02:13:01.499Z,19.40
2018-11-06T02:13:34.062Z,18.45
2018-11-06T02:14:06.790Z,17.48
2018-11-06T02:14:39.387Z,18.37
2018-11-06T02:15:12.052Z,18.32
2018-11-06T02:15:44.671Z,17.92
2018-11-06T02:16:17.277Z,18.60
2018-11-06T02:16:49.879Z,18.82
2018-11-06T02:17:22.486Z,17.30
2018-11-06T02:17:55.055Z,19.48
2018-11-06T02:18:27.624Z,17.45
2018-11-06T02:19:00.244Z,17.10
2018-11-06T02:19:32.826Z,17.40
2018-11-06T02:20:05.650Z,17.35
2018-11-06T02:20:38.234Z,17.45
2018-11-06T02:21:11.096Z,17.32
2018-11-06T02:21:43.730Z,18.20
2018-11-06T02:22:16.356Z,17.17
2018-11-06T02:22:48.963Z,18.42
2018-11-06T02:23:21.542Z,18.25
2018-11-06T02:23:54.159Z,18.40
2018-11-06T02:24:26.734Z,16.48
2018-11-06T02:24:59.335Z,16.73
2018-11-06T02:25:31.941Z,18.30
2018-11-06T02:26:04.550Z,16.73
2018-11-06T02:26:37.173Z,17.50
2018-11-06T02:27:09.780Z,17.55
2018-11-06T02:27:42.390Z,16.10
2018-11-06T02:28:14.969Z,17.80
2018-11-06T02:28:47.560Z,17.77
2018-11-06T02:29:20.139Z,19.27
2018-11-06T02:29:52.791Z,18.07
2018-11-06T02:30:25.428Z,17.30
2018-11-06T02:30:57.996Z,17.23
2018-11-06T02:31:30.620Z,17.10
2018-11-06T02:32:03.271Z,17.10
2018-11-06T02:32:36.014Z,15.75
2018-11-06T02:33:08.579Z,17.70
2018-11-06T02:33:41.188Z,17.87
2018-11-06T02:34:14.178Z,17.73
2018-11-06T02:34:46.760Z,17.25
2018-11-06T02:35:19.392Z,16.65
2018-11-06T02:35:52.013Z,17.07
2018-11-06T02:36:24.585Z,18.70
2018-11-06T02:36:57.156Z,16.35
2018-11-06T02:37:29.768Z,16.20
2018-11-06T02:38:02.351Z,16.50
2018-11-06T02:38:34.954Z,17.87
2018-11-06T02:39:08.689Z,17.02
2018-11-06T02:39:41.307Z,17.27
2018-11-06T02:40:15.016Z,16.55
2018-11-06T02:40:47.587Z,17.10
2018-11-06T02:41:20.216Z,17.82
2018-11-06T02:41:52.787Z,18.37
2018-11-06T02:42:25.398Z,17.80
2018-11-06T02:42:57.990Z,18.10
2018-11-06T02:43:30.552Z,17.75
2018-11-06T02:44:03.192Z,17.23
2018-11-06T02:44:35.763Z,16.95
2018-11-06T02:45:09.202Z,17.05
2018-11-06T02:45:41.806Z,17.60
2018-11-06T02:46:14.402Z,15.98
2018-11-06T02:46:47.011Z,17.62
2018-11-06T02:47:19.614Z,17.23
2018-11-06T02:47:52.178Z,17.55
2018-11-06T02:48:24.748Z,16.85
2018-11-06T02:48:57.320Z,17.25
2018-11-06T02:49:29.981Z,16.77
2018-11-06T02:50:02.680Z,16.82
2018-11-06T02:50:35.306Z,16.93
2018-11-06T02:51:07.917Z,16.40
2018-11-06T02:51:40.495Z,18.00
2018-11-06T02:52:13.063Z,17.10
2018-11-06T02:52:45.636Z,18.02
2018-11-06T02:53:18.283Z,17.60
2018-11-06T02:53:50.896Z,16.65
2018-11-06T02:54:23.506Z,16.37
2018-11-06T02:54:56.099Z,16.35
2018-11-06T02:55:28.666Z,17.92
2018-11-06T02:56:01.338Z,18.00
2018-11-06T02:56:33.874Z,17.98
2018-11-06T02:57:06.504Z,17.52
2018-11-06T02:57:39.487Z,16.50
2018-11-06T02:58:12.047Z,17.40
2018-11-06T02:58:44.611Z,17.60
2018-11-06T02:59:17.189Z,16.95
2018-11-06T02:59:49.763Z,15.15
2018-11-06T03:00:22.371Z,17.12
2018-11-06T03:00:54.962Z,17.00
2018-11-06T03:01:27.530Z,14.98
2018-11-06T03:02:00.123Z,15.80
2018-11-06T03:02:32.702Z,16.60
2018-11-06T03:03:05.415Z,16.07
2018-11-06T03:03:38.847Z,16.10
2018-11-06T03:04:11.468Z,17.15
2018-11-06T03:04:44.039Z,15.78
2018-11-06T03:05:16.648Z,16.32
2018-11-06T03:05:49.292Z,16.65
2018-11-06T03:06:21.907Z,16.82
2018-11-06T03:06:54.515Z,16.10
2018-11-06T03:07:27.083Z,18.35
2018-11-06T03:07:59.686Z,15.98
2018-11-06T03:08:32.271Z,15.25
2018-11-06T03:09:06.223Z,17.57
2018-11-06T03:09:38.798Z,15.58
2018-11-06T03:10:12.362Z,16.48
2018-11-06T03:10:44.927Z,15.20
2018-11-06T03:11:17.535Z,16.60
2018-11-06T03:11:50.131Z,17.37
2018-11-06T03:12:22.722Z,16.42
2018-11-06T03:12:55.322Z,15.95
2018-11-06T03:13:27.956Z,17.45
2018-11-06T03:14:00.502Z,14.95
2018-11-06T03:14:33.121Z,16.62
2018-11-06T03:15:06.311Z,17.40
2018-11-06T03:15:38.886Z,16.15
2018-11-06T03:16:11.484Z,16.15
2018-11-06T03:16:44.147Z,15.28
2018-11-06T03:17:16.699Z,14.73
2018-11-06T03:17:49.255Z,16.30
2018-11-06T03:18:21.819Z,15.70
2018-11-06T03:18:54.432Z,15.38
2018-11-06T03:19:27.000Z,15.88
2018-11-06T03:19:59.613Z,15.45
2018-11-06T03:20:32.202Z,16.62
2018-11-06T03:21:04.829Z,16.65
2018-11-06T03:21:37.404Z,15.05
2018-11-06T03:22:10.060Z,15.38
2018-11-06T03:22:43.227Z,16.30
2018-11-06T03:23:15.842Z,14.90
2018-11-06T03:23:48.407Z,15.70
2018-11-06T03:24:20.977Z,15.43
2018-11-06T03:24:53.551Z,15.28
2018-11-06T03:25:26.123Z,15.50
2018-11-06T03:25:58.699Z,16.32
2018-11-06T03:26:31.318Z,15.40
2018-11-06T03:27:04.028Z,15.70
2018-11-06T03:27:36.574Z,16.10
2018-11-06T03:28:09.158Z,17.75
2018-11-06T03:28:41.723Z,16.90
2018-11-06T03:29:14.283Z,14.85
2018-11-06T03:29:46.905Z,15.38
2018-11-06T03:30:19.535Z,14.70
2018-11-06T03:30:52.114Z,13.62
2018-11-06T03:31:24.727Z,15.15
2018-11-06T03:31:57.328Z,15.18
2018-11-06T03:32:30.009Z,15.13
2018-11-06T03:33:02.623Z,14.45
2018-11-06T03:33:35.226Z,16.12
2018-11-06T03:34:07.840Z,14.65
2018-11-06T03:34:40.461Z,15.25
2018-11-06T03:35:13.840Z,15.32
2018-11-06T03:35:46.397Z,16.10
2018-11-06T03:36:18.946Z,14.98
2018-11-06T03:36:51.572Z,15.13
2018-11-06T03:37:24.188Z,16.45
2018-11-06T03:37:56.769Z,16.12
2018-11-06T03:38:29.439Z,15.50
2018-11-06T03:39:02.011Z,15.78
2018-11-06T03:39:34.651Z,13.65
2018-11-06T03:40:07.802Z,15.00
2018-11-06T03:40:40.405Z,14.07
2018-11-06T03:41:12.994Z,14.38
2018-11-06T03:41:45.606Z,14.78
2018-11-06T03:42:18.197Z,14.20
2018-11-06T03:42:50.783Z,13.83
2018-11-06T03:43:23.404Z,14.93
2018-11-06T03:43:56.036Z,15.40
2018-11-06T03:44:28.620Z,15.25
2018-11-06T03:45:01.236Z,15.53
2018-11-06T03:45:33.845Z,15.58
2018-11-06T03:46:06.462Z,14.65
2018-11-06T03:46:39.063Z,14.53
2018-11-06T03:47:11.623Z,14.68
2018-11-06T03:47:44.210Z,15.45
2018-11-06T03:48:16.794Z,14.23
2018-11-06T03:48:49.404Z,13.38
2018-11-06T03:49:22.036Z,15.80
2018-11-06T03:49:54.618Z,13.30
2018-11-06T03:50:27.210Z,14.73
2018-11-06T03:50:59.806Z,14.10
2018-11-06T03:51:32.407Z,15.23
2018-11-06T03:52:05.179Z,15.25
2018-11-06T03:52:37.750Z,15.23
2018-11-06T03:53:10.335Z,15.10
2018-11-06T03:53:42.965Z,16.50
2018-11-06T03:54:15.679Z,14.35
2018-11-06T03:54:48.311Z,14.50
2018-11-06T03:55:20.915Z,14.98
2018-11-06T03:55:53.495Z,16.15
2018-11-06T03:56:26.117Z,16.27
2018-11-06T03:56:58.717Z,15.53
2018-11-06T03:57:31.326Z,15.70
2018-11-06T03:58:03.942Z,13.80
2018-11-06T03:58:36.725Z,14.15
2018-11-06T03:59:09.343Z,15.20
2018-11-06T03:59:41.921Z,14.87
2018-11-06T04:00:15.059Z,14.58
2018-11-06T04:00:47.677Z,15.90
2018-11-06T04:01:20.256Z,14.70
2018-11-06T04:01:52.831Z,15.00
2018-11-06T04:02:25.432Z,15.38
2018-11-06T04:02:58.002Z,15.50
2018-11-06T04:03:30.595Z,15.70
2018-11-06T04:04:03.198Z,15.60
2018-11-06T04:04:35.820Z,15.23
2018-11-06T04:05:08.937Z,15.45
2018-11-06T04:05:41.566Z,14.95
2018-11-06T04:06:14.192Z,14.55
2018-11-06T04:06:46.762Z,15.60
2018-11-06T04:07:19.377Z,15.20
2018-11-06T04:07:51.978Z,16.17
2018-11-06T04:08:24.582Z,14.70
2018-11-06T04:08:57.157Z,14.95
2018-11-06T04:09:29.779Z,14.30
2018-11-06T04:10:02.588Z,14.47
2018-11-06T04:10:35.202Z,14.05
2018-11-06T04:11:08.121Z,15.13
2018-11-06T04:11:41.214Z,15.32
2018-11-06T04:12:13.815Z,15.58
2018-11-06T04:12:46.431Z,13.72
2018-11-06T04:13:19.003Z,14.73
2018-11-06T04:13:51.566Z,15.48
2018-11-06T04:14:24.177Z,14.73
2018-11-06T04:14:56.739Z,15.88
2018-11-06T04:15:29.330Z,14.93
2018-11-06T04:16:01.952Z,15.80
2018-11-06T04:16:34.604Z,14.60
2018-11-06T04:17:07.227Z,16.10
2018-11-06T04:17:40.103Z,14.35
2018-11-06T04:18:12.684Z,16.40
2018-11-06T04:18:45.295Z,14.55
2018-11-06T04:19:17.915Z,15.03
2018-11-06T04:19:50.488Z,16.60
2018-11-06T04:20:23.092Z,14.75
2018-11-06T04:20:55.708Z,15.18
2018-11-06T04:21:33.840Z,16.85
2018-11-06T04:22:06.488Z,15.25
2018-11-06T04:22:39.750Z,16.82
2018-11-06T04:23:12.365Z,16.12
2018-11-06T04:23:44.940Z,15.38
2018-11-06T04:24:17.526Z,13.98
2018-11-06T04:24:50.131Z,15.38
2018-11-06T04:25:22.702Z,14.87
2018-11-06T04:25:55.307Z,14.15
2018-11-06T04:26:27.875Z,15.45
2018-11-06T04:27:00.483Z,15.05
2018-11-06T04:27:33.077Z,14.95
2018-11-06T04:28:05.775Z,15.65
2018-11-06T04:28:38.391Z,14.43
2018-11-06T04:29:11.010Z,15.55
2018-11-06T04:29:43.599Z,14.60
2018-11-06T04:30:16.204Z,15.32
2018-11-06T04:30:48.802Z,14.70
2018-11-06T04:31:21.420Z,15.08
2018-11-06T04:31:54.007Z,15.50
2018-11-06T04:32:26.591Z,15.75
2018-11-06T04:32:59.186Z,16.57
2018-11-06T04:33:31.849Z,15.80
2018-11-06T04:34:04.780Z,15.85
2018-11-06T04:34:37.370Z,14.35
2018-11-06T04:35:10.623Z,16.23
2018-11-06T04:35:43.223Z,15.45
2018-11-06T04:36:15.795Z,16.35
2018-11-06T04:36:48.387Z,16.65
2018-11-06T04:37:20.997Z,15.45
2018-11-06T04:37:53.583Z,15.13
2018-11-06T04:38:26.229Z,16.57
2018-11-06T04:38:59.310Z,15.35
2018-11-06T04:39:31.902Z,15.75
2018-11-06T04:40:05.487Z,16.40
2018-11-06T04:40:38.078Z,15.60
2018-11-06T04:41:10.680Z,16.15
2018-11-06T04:41:43.328Z,16.62
2018-11-06T04:42:15.926Z,16.25
2018-11-06T04:42:48.503Z,16.55
2018-11-06T04:43:21.106Z,15.50
2018-11-06T04:43:53.745Z,14.70
2018-11-06T04:44:26.338Z,16.15
2018-11-06T04:44:58.966Z,14.78
2018-11-06T04:45:31.590Z,15.78
2018-11-06T04:46:04.539Z,15.10
2018-11-06T04:46:37.107Z,16.30
2018-11-06T04:47:09.683Z,15.83
2018-11-06T04:47:42.503Z,14.70
2018-11-06T04:48:15.082Z,14.98
2018-11-06T04:48:47.738Z,16.67
2018-11-06T04:49:20.343Z,14.83
2018-11-06T04:49:53.263Z,15.23
2018-11-06T04:50:25.835Z,16.52
2018-11-06T04:50:58.457Z,16.23
2018-11-06T04:51:31.066Z,15.90
2018-11-06T04:52:03.825Z,16.70
2018-11-06T04:52:36.460Z,15.35
2018-11-06T04:53:09.039Z,15.90
2018-11-06T04:53:41.654Z,16.65
2018-11-06T04:54:14.265Z,15.35
2018-11-06T04:54:46.846Z,15.45
2018-11-06T04:55:19.431Z,15.93
2018-11-06T04:55:51.991Z,15.78
2018-11-06T04:56:24.599Z,15.78
2018-11-06T04:56:57.206Z,15.68
2018-11-06T04:57:29.919Z,15.00
2018-11-06T04:58:02.523Z,13.70
2018-11-06T04:58:35.106Z,14.43
2018-11-06T04:59:07.744Z,14.73
2018-11-06T04:59:40.346Z,14.50
2018-11-06T05:00:14.186Z,14.05
2018-11-06T05:00:46.759Z,14.10
2018-11-06T05:01:19.406Z,14.35
2018-11-06T05:01:52.039Z,14.07
2018-11-06T05:02:24.628Z,14.95
2018-11-06T05:02:57.215Z,14.15
2018-11-06T05:03:29.807Z,13.45
2018-11-06T05:04:02.415Z,14.98
2018-11-06T05:04:35.023Z,14.30
2018-11-06T05:05:08.164Z,13.43
2018-11-06T05:05:40.782Z,13.72
2018-11-06T05:06:13.790Z,13.50
2018-11-06T05:06:46.409Z,14.23
2018-11-06T05:07:18.977Z,13.85
2018-11-06T05:07:51.551Z,14.10
2018-11-06T05:08:24.134Z,14.00
2018-11-06T05:08:56.734Z,14.25
2018-11-06T05:09:29.314Z,13.10
2018-11-06T05:10:02.747Z,14.50
2018-11-06T05:10:35.312Z,13.48
2018-11-06T05:11:07.969Z,13.68
2018-11-06T05:11:40.534Z,14.30
2018-11-06T05:12:13.184Z,12.82
2018-11-06T05:12:45.777Z,13.98
2018-11-06T05:13:18.404Z,14.53
2018-11-06T05:13:51.037Z,13.43
2018-11-06T05:14:23.665Z,13.75
2018-11-06T05:14:56.216Z,15.05
2018-11-06T05:15:28.821Z,14.50
2018-11-06T05:16:01.374Z,13.98
2018-11-06T05:16:33.974Z,15.13
2018-11-06T05:17:06.566Z,13.90
2018-11-06T05:17:39.149Z,14.73
2018-11-06T05:18:11.722Z,13.62
2018-11-06T05:18:44.336Z,15.40
2018-11-06T05:19:16.929Z,15.10
2018-11-06T05:19:49.548Z,13.85
2018-11-06T05:20:22.139Z,13.80
2018-11-06T05:20:54.742Z,14.00
2018-11-06T05:21:27.319Z,14.30
2018-11-06T05:21:59.911Z,13.95
2018-11-06T05:22:32.455Z,14.75
2018-11-06T05:23:05.066Z,15.32
2018-11-06T05:23:37.639Z,15.28
2018-11-06T05:24:10.233Z,14.15
2018-11-06T05:24:42.814Z,13.32
2018-11-06T05:25:15.690Z,15.03
2018-11-06T05:25:48.244Z,13.95
2018-11-06T05:26:20.827Z,14.38
2018-11-06T05:26:53.442Z,13.78
2018-11-06T05:27:26.121Z,12.58
2018-11-06T05:27:58.684Z,13.25
2018-11-06T05:28:31.255Z,14.07
2018-11-06T05:29:03.855Z,13.83
2018-11-06T05:29:36.452Z,16.05
2018-11-06T05:30:10.076Z,14.28
2018-11-06T05:30:42.675Z,14.40
2018-11-06T05:31:15.259Z,14.40
2018-11-06T05:31:47.843Z,13.68
2018-11-06T05:32:20.424Z,14.30
2018-11-06T05:32:53.077Z,14.90
2018-11-06T05:33:25.962Z,13.90
2018-11-06T05:33:58.546Z,13.75
2018-11-06T05:34:31.147Z,12.98
2018-11-06T05:35:04.306Z,13.68
2018-11-06T05:35:36.920Z,13.55
2018-11-06T05:36:09.476Z,13.55
2018-11-06T05:36:42.035Z,14.73
2018-11-06T05:37:14.639Z,14.03
2018-11-06T05:37:47.214Z,13.80
2018-11-06T05:38:19.801Z,15.32
2018-11-06T05:38:52.388Z,14.58
2018-11-06T05:39:25.086Z,14.85
2018-11-06T05:40:08.887Z,15.08
2018-11-06T05:40:50.672Z,14.70
2018-11-06T05:41:23.278Z,14.00
2018-11-06T05:41:55.859Z,13.85
2018-11-06T05:42:28.481Z,12.58
2018-11-06T05:43:01.055Z,14.35
2018-11-06T05:43:34.094Z,15.25
2018-11-06T05:44:06.717Z,13.43
2018-11-06T05:44:39.271Z,14.75
2018-11-06T05:45:11.866Z,14.68
2018-11-06T05:45:44.520Z,13.53
2018-11-06T05:46:17.095Z,14.68
2018-11-06T05:46:49.659Z,14.18
2018-11-06T05:47:22.292Z,14.50
2018-11-06T05:47:54.921Z,13.98
2018-11-06T05:48:27.478Z,14.35
2018-11-06T05:49:00.075Z,14.68
2018-11-06T05:49:32.688Z,13.85
2018-11-06T05:50:05.312Z,12.88
2018-11-06T05:50:37.888Z,13.72
2018-11-06T05:51:10.516Z,13.50
2018-11-06T05:51:43.118Z,14.65
2018-11-06T05:52:15.691Z,13.83
2018-11-06T05:52:48.308Z,13.50
2018-11-06T05:53:21.059Z,13.83
2018-11-06T05:53:53.623Z,13.32
2018-11-06T05:54:26.252Z,14.63
2018-11-06T05:54:58.828Z,15.38
2018-11-06T05:55:31.437Z,15.83
2018-11-06T05:56:04.379Z,15.83
2018-11-06T05:56:36.946Z,13.68
2018-11-06T05:57:09.531Z,14.33
2018-11-06T05:57:42.136Z,14.65
2018-11-06T05:58:14.683Z,15.45
2018-11-06T05:58:47.299Z,15.50
2018-11-06T05:59:19.906Z,15.83
2018-11-06T05:59:52.526Z,15.32
2018-11-06T06:00:25.153Z,14.80
2018-11-06T06:00:57.714Z,14.65
2018-11-06T06:01:30.340Z,14.95
2018-11-06T06:02:02.926Z,14.90
2018-11-06T06:02:35.495Z,15.28
2018-11-06T06:03:08.079Z,15.72
2018-11-06T06:03:40.666Z,14.25
2018-11-06T06:04:13.286Z,14.40
2018-11-06T06:04:45.842Z,13.80
2018-11-06T06:05:18.434Z,15.13
2018-11-06T06:05:50.999Z,14.38
2018-11-06T06:06:23.558Z,14.60
2018-11-06T06:06:56.188Z,15.03
2018-11-06T06:07:28.780Z,13.68
2018-11-06T06:08:01.358Z,15.03
2018-11-06T06:08:33.953Z,14.50
2018-11-06T06:09:07.078Z,15.30
2018-11-06T06:09:39.626Z,13.85
2018-11-06T06:10:12.223Z,15.58
2018-11-06T06:10:44.858Z,14.30
2018-11-06T06:11:17.464Z,15.98
2018-11-06T06:11:50.060Z,14.70
2018-11-06T06:12:22.675Z,15.30
2018-11-06T06:12:55.235Z,13.90
2018-11-06T06:13:27.839Z,14.98
2018-11-06T06:14:00.402Z,15.13
2018-11-06T06:14:32.987Z,14.73
2018-11-06T06:15:06.659Z,15.38
2018-11-06T06:15:39.295Z,15.80
2018-11-06T06:16:11.976Z,14.93
2018-11-06T06:16:44.610Z,16.15
2018-11-06T06:17:17.243Z,14.40
2018-11-06T06:17:49.775Z,14.23
2018-11-06T06:18:22.392Z,15.50
2018-11-06T06:18:55.017Z,14.20
2018-11-06T06:19:27.620Z,14.58
2018-11-06T06:20:00.236Z,15.45
2018-11-06T06:20:32.818Z,15.15
2018-11-06T06:21:05.412Z,14.83
2018-11-06T06:21:38.051Z,16.02
2018-11-06T06:22:10.648Z,15.63
2018-11-06T06:22:43.350Z,14.87
2018-11-06T06:23:15.874Z,14.95
2018-11-06T06:23:48.497Z,15.00
2018-11-06T06:24:21.107Z,14.20
2018-11-06T06:24:53.720Z,15.45
2018-11-06T06:25:26.273Z,14.83
2018-11-06T06:25:58.834Z,14.00
2018-11-06T06:26:31.574Z,15.78
2018-11-06T06:27:04.326Z,13.45
2018-11-06T06:27:36.931Z,14.45
2018-11-06T06:28:09.522Z,14.65
2018-11-06T06:28:42.133Z,14.35
2018-11-06T06:29:14.728Z,16.35
2018-11-06T06:29:47.340Z,14.40
2018-11-06T06:30:19.940Z,13.95
2018-11-06T06:30:52.566Z,14.73
2018-11-06T06:31:25.147Z,16.48
2018-11-06T06:31:57.764Z,15.83
2018-11-06T06:32:30.440Z,14.30
2018-11-06T06:33:03.033Z,15.30
2018-11-06T06:33:35.720Z,16.50
2018-11-06T06:34:08.336Z,16.42
2018-11-06T06:34:41.003Z,15.83
2018-11-06T06:35:13.559Z,16.27
2018-11-06T06:35:46.128Z,15.68
2018-11-06T06:36:18.838Z,13.43
2018-11-06T06:36:51.438Z,14.78
2018-11-06T06:37:24.027Z,14.78
2018-11-06T06:37:56.651Z,15.00
2018-11-06T06:38:29.285Z,14.58
2018-11-06T06:39:01.923Z,14.58
2018-11-06T06:39:34.522Z,15.20
2018-11-06T06:40:10.399Z,14.95
2018-11-06T06:40:42.931Z,14.58
2018-11-06T06:41:15.510Z,14.90
2018-11-06T06:41:48.099Z,15.43
2018-11-06T06:42:20.701Z,13.93
2018-11-06T06:42:53.267Z,15.43
2018-11-06T06:43:25.877Z,13.70
2018-11-06T06:43:58.451Z,15.50
2018-11-06T06:44:31.034Z,14.45
2018-11-06T06:45:04.152Z,16.67
2018-11-06T06:45:36.714Z,15.13
2018-11-06T06:46:09.357Z,13.62
2018-11-06T06:46:41.952Z,16.10
2018-11-06T06:47:14.524Z,14.93
2018-11-06T06:47:47.192Z,15.03
2018-11-06T06:48:19.754Z,13.90
2018-11-06T06:48:52.407Z,14.93
2018-11-06T06:49:25.013Z,14.83
2018-11-06T06:49:57.599Z,15.50
2018-11-06T06:50:30.172Z,14.63
2018-11-06T06:51:02.780Z,16.00
2018-11-06T06:51:35.378Z,14.87
2018-11-06T06:52:07.979Z,15.60
2018-11-06T06:52:41.086Z,15.40
2018-11-06T06:53:13.696Z,16.27
2018-11-06T06:53:46.293Z,15.80
2018-11-06T06:54:19.025Z,16.23
2018-11-06T06:54:51.511Z,14.90
2018-11-06T06:55:24.125Z,17.27
2018-11-06T06:55:56.699Z,15.30
2018-11-06T06:56:29.270Z,14.90
2018-11-06T06:57:01.859Z,14.73
2018-11-06T06:57:34.697Z,15.13
2018-11-06T06:58:07.262Z,15.10
2018-11-06T06:58:39.859Z,14.83
2018-11-06T06:59:12.443Z,15.55
2018-11-06T06:59:45.043Z,16.65
2018-11-06T07:00:18.937Z,15.85
2018-11-06T07:00:51.537Z,16.30
2018-11-06T07:01:24.166Z,15.05